Time;durP1;ratioP1;P1;durP2;ratioP2;P2;SDS_P1;SDS_P2;PMS_P1;PMS_P2;Temp;Humidity;BMP_temperature;BMP_pressure;BME280_temperature;BME280_humidity;BME280_pressure;Samples;Min_cycle;Max_cycle;Signal;HPM_P1;HPM_P2
2023/05/17 00:01:04;;;;;;;;;;;;;;;9.95;63.95;99322.38;5061072;28;20008;-76
2023/05/17 00:03:29;;;;;;;;;;;;;;;9.90;64.11;99319.59;5055791;28;19971;-75
2023/05/17 00:05:55;;;;;;;;;;;;;;;9.82;64.66;99333.28;5053830;28;19921;-75
2023/05/17 00:08:20;;;;;;;;;;;;;;;9.85;64.14;99329.34;5045364;28;19925;-75
2023/05/17 00:10:45;;;;;;;;;;;;;;;8.87;66.81;99335.13;5063163;28;19924;-75
2023/05/17 00:13:10;;;;;;;;;;;;;;;9.36;66.25;99333.22;5061011;28;19925;-75
2023/05/17 00:15:36;;;;;;;;;;;;;;;9.67;65.49;99336.41;5066192;28;19921;-75
2023/05/17 00:18:01;;;;;;;;;;;;;;;9.61;64.63;99342.63;5054596;28;19927;-75
2023/05/17 00:20:26;;;;;;;;;;;;;;;9.79;64.85;99334.53;5059450;28;19921;-75
2023/05/17 00:22:51;;;;;;;;;;;;;;;9.84;64.29;99333.84;5070444;28;20370;-76
2023/05/17 00:25:17;;;;;;;;;;;;;;;9.74;64.90;99328.28;5055780;28;19920;-76
2023/05/17 00:27:42;;;;;;;;;;;;;;;9.80;65.19;99327.38;5061000;28;19929;-75
2023/05/17 00:30:07;;;;;;;;;;;;;;;9.76;64.42;99324.34;5056384;28;20351;-75
2023/05/17 00:32:32;;;;;;;;;;;;;;;9.74;64.72;99321.09;5054511;28;20296;-75
2023/05/17 00:34:58;;;;;;;;;;;;;;;9.69;65.37;99320.16;5057046;28;19951;-75
2023/05/17 00:37:23;;;;;;;;;;;;;;;9.67;65.10;99314.25;5062682;28;20403;-75
2023/05/17 00:39:48;;;;;;;;;;;;;;;9.67;65.09;99320.41;5056614;28;19929;-75
2023/05/17 00:42:13;;;;;;;;;;;;;;;9.23;65.92;99318.25;5054886;28;19928;-76
2023/05/17 00:44:39;;;;;;;;;;;;;;;8.96;67.75;99323.13;5045036;28;19924;-75
2023/05/17 00:47:04;;;;;;;;;;;;;;;7.05;74.38;99335.91;5057785;28;20447;-75
2023/05/17 00:49:29;;;;;;;;;;;;;;;6.48;76.97;99328.84;5054479;28;19917;-75
2023/05/17 00:51:55;;;;;;;;;;;;;;;7.11;76.78;99326.25;5075138;28;20292;-75
2023/05/17 00:54:20;;;;;;;;;;;;;;;8.76;69.80;99325.25;5070097;28;20281;-75
2023/05/17 00:56:46;;;;;;;;;;;;;;;8.26;70.85;99329.97;5052849;28;20027;-75
2023/05/17 00:59:12;;;;;;;;;;;;;;;9.00;68.12;99328.81;5061378;28;20355;-75
2023/05/17 01:01:40;;;;;;;;;;;;;;;9.18;67.55;99325.28;5058145;28;19921;-75
2023/05/17 01:04:05;;;;;;;;;;;;;;;9.35;65.84;99326.28;5057128;28;19933;-76
2023/05/17 01:06:31;;;;;;;;;;;;;;;9.46;65.70;99328.13;5044715;28;20448;-75
2023/05/17 01:08:56;;;;;;;;;;;;;;;9.44;65.81;99330.19;5055016;28;20066;-75
2023/05/17 01:11:30;;;;;;;;;;;;;;;9.44;65.78;99332.88;5054562;28;19929;-76
2023/05/17 01:14:22;;;;;;;;;;;;;;;9.48;65.68;99336.72;5059010;28;19969;-75
2023/05/17 01:16:54;;;;;;;;;;;;;;;9.49;65.84;99322.34;5055833;28;20395;-75
2023/05/17 01:19:35;;;;;;;;;;;;;;;9.41;65.49;99328.03;5057209;28;19916;-75
2023/05/17 01:22:19;;;;;;;;;;;;;;;9.50;65.60;99324.78;5050373;28;19917;-76
2023/05/17 01:24:51;;;;;;;;;;;;;;;9.45;65.34;99332.66;5055382;28;20007;-75
2023/05/17 01:27:18;;;;;;;;;;;;;;;9.39;65.58;99330.88;5058633;28;20356;-75
2023/05/17 01:29:44;;;;;;;;;;;;;;;9.38;65.98;99331.94;5058262;28;20560;-75
2023/05/17 01:32:09;;;;;;;;;;;;;;;9.40;65.50;99331.72;5058395;28;19920;-76
2023/05/17 01:34:35;;;;;;;;;;;;;;;9.24;67.07;99341.16;5054597;28;19964;-76
2023/05/17 01:37:00;;;;;;;;;;;;;;;9.39;66.26;99343.41;5053933;28;19956;-75
2023/05/17 01:39:25;;;;;;;;;;;;;;;9.16;66.90;99343.34;5052240;28;19920;-76
2023/05/17 01:41:57;;;;;;;;;;;;;;;8.61;68.50;99346.13;5056677;28;19921;-75
2023/05/17 01:44:36;;;;;;;;;;;;;;;7.77;71.63;99355.78;5060354;28;20007;-75
2023/05/17 01:47:15;;;;;;;;;;;;;;;7.42;72.84;99360.75;5058648;28;19947;-75
2023/05/17 01:49:45;;;;;;;;;;;;;;;6.67;76.56;99356.28;5054141;28;19935;-75
2023/05/17 01:52:15;;;;;;;;;;;;;;;7.65;73.51;99363.63;5054719;28;20326;-75
2023/05/17 01:54:53;;;;;;;;;;;;;;;8.58;69.73;99362.56;5058405;28;19916;-75
2023/05/17 01:57:19;;;;;;;;;;;;;;;8.63;69.60;99360.00;5057764;28;19924;-75
2023/05/17 01:59:45;;;;;;;;;;;;;;;9.01;67.64;99360.56;5057893;28;20015;-75
2023/05/17 02:02:11;;;;;;;;;;;;;;;9.09;66.78;99362.06;5054179;28;19979;-75
2023/05/17 02:04:36;;;;;;;;;;;;;;;9.18;67.22;99362.56;5054568;28;19978;-75
2023/05/17 02:07:02;;;;;;;;;;;;;;;9.17;66.65;99358.28;5058333;28;19925;-75
2023/05/17 02:09:27;;;;;;;;;;;;;;;9.11;66.94;99356.53;5056724;28;19916;-75
2023/05/17 02:11:52;;;;;;;;;;;;;;;9.12;67.00;99358.16;5052204;28;19916;-75
2023/05/17 02:14:18;;;;;;;;;;;;;;;9.11;66.29;99359.22;5038044;28;19925;-75
2023/05/17 02:16:43;;;;;;;;;;;;;;;9.12;67.16;99352.81;5053830;28;19916;-75
2023/05/17 02:19:08;;;;;;;;;;;;;;;8.98;67.23;99362.84;5055998;28;19932;-75
2023/05/17 02:21:34;;;;;;;;;;;;;;;9.15;67.19;99355.03;5062604;28;19928;-76
2023/05/17 02:23:59;;;;;;;;;;;;;;;8.97;67.67;99347.91;5051673;28;19929;-75
2023/05/17 02:26:25;;;;;;;;;;;;;;;8.83;68.15;99347.28;5042721;28;19921;-76
2023/05/17 02:28:50;;;;;;;;;;;;;;;8.99;67.43;99351.97;5054590;28;19921;-75
2023/05/17 02:31:15;;;;;;;;;;;;;;;9.12;66.95;99345.66;5054871;28;19928;-75
2023/05/17 02:33:40;;;;;;;;;;;;;;;8.64;69.87;99340.38;5057087;28;19921;-76
2023/05/17 02:36:05;;;;;;;;;;;;;;;7.88;73.02;99360.38;5043601;28;19921;-76
2023/05/17 02:38:31;;;;;;;;;;;;;;;8.01;72.85;99353.09;5055833;28;20433;-75
2023/05/17 02:40:56;;;;;;;;;;;;;;;8.06;72.82;99352.44;5055427;28;19927;-75
2023/05/17 02:43:21;;;;;;;;;;;;;;;7.97;72.95;99348.44;5056719;28;19962;-75
2023/05/17 02:45:47;;;;;;;;;;;;;;;8.24;72.98;99350.63;5054788;28;19917;-75
2023/05/17 02:48:12;;;;;;;;;;;;;;;8.78;70.76;99346.34;5059417;28;19928;-75
2023/05/17 02:50:37;;;;;;;;;;;;;;;8.98;69.92;99346.88;5053677;28;19917;-75
2023/05/17 02:53:02;;;;;;;;;;;;;;;9.19;69.07;99348.22;5060880;28;19928;-75
2023/05/17 02:55:28;;;;;;;;;;;;;;;8.90;70.74;99334.69;5049323;28;20501;-75
2023/05/17 02:57:53;;;;;;;;;;;;;;;9.12;69.17;99336.84;5046605;28;20368;-75
2023/05/17 03:00:18;;;;;;;;;;;;;;;9.07;69.31;99341.00;5041039;28;20002;-75
2023/05/17 03:02:44;;;;;;;;;;;;;;;9.17;69.13;99340.47;5052904;28;19921;-75
2023/05/17 03:05:09;;;;;;;;;;;;;;;9.16;69.36;99348.66;5051662;28;19921;-75
2023/05/17 03:07:35;;;;;;;;;;;;;;;8.99;70.14;99353.81;5052260;28;19917;-75
2023/05/17 03:10:00;;;;;;;;;;;;;;;9.13;69.50;99354.47;5050039;28;19925;-75
2023/05/17 03:12:25;;;;;;;;;;;;;;;9.30;68.74;99360.75;5048658;28;20356;-75
2023/05/17 03:14:50;;;;;;;;;;;;;;;8.92;70.91;99363.75;5054153;28;20368;-75
2023/05/17 03:17:16;;;;;;;;;;;;;;;8.75;71.83;99373.38;5054254;28;20401;-76
2023/05/17 03:19:41;;;;;;;;;;;;;;;7.92;74.79;99382.84;5051220;28;20391;-75
2023/05/17 03:22:06;;;;;;;;;;;;;;;8.05;74.28;99372.06;5044682;28;20596;-75
2023/05/17 03:24:31;;;;;;;;;;;;;;;8.57;72.94;99378.72;5052178;28;19924;-75
2023/05/17 03:26:56;;;;;;;;;;;;;;;8.62;72.23;99377.03;5053023;28;19956;-75
2023/05/17 03:29:22;;;;;;;;;;;;;;;8.96;71.34;99379.03;5050839;28;19975;-75
2023/05/17 03:31:47;;;;;;;;;;;;;;;8.90;71.43;99381.78;5054489;28;21523;-76
2023/05/17 03:34:12;;;;;;;;;;;;;;;9.12;70.55;99393.59;5061458;28;19924;-75
2023/05/17 03:36:40;;;;;;;;;;;;;;;9.23;69.85;99392.00;5055140;28;20082;-75
2023/05/17 03:39:06;;;;;;;;;;;;;;;9.25;69.90;99387.25;5054526;28;19924;-75
2023/05/17 03:41:31;;;;;;;;;;;;;;;8.90;71.50;99393.25;5048886;28;19931;-75
2023/05/17 03:43:56;;;;;;;;;;;;;;;8.55;72.75;99400.22;5057336;28;19975;-75
2023/05/17 03:46:22;;;;;;;;;;;;;;;9.12;71.16;99396.25;5070173;28;20381;-75
2023/05/17 03:48:47;;;;;;;;;;;;;;;9.25;69.82;99395.25;5057844;28;19924;-76
2023/05/17 03:51:12;;;;;;;;;;;;;;;9.22;69.54;99403.72;5042017;28;19928;-75
2023/05/17 03:53:41;;;;;;;;;;;;;;;9.20;70.52;99409.25;5058865;28;19927;-75
2023/05/17 03:56:07;;;;;;;;;;;;;;;9.05;70.85;99399.00;5057212;28;20384;-75
2023/05/17 03:58:32;;;;;;;;;;;;;;;9.21;70.15;99407.41;5060807;28;19935;-75
2023/05/17 04:00:57;;;;;;;;;;;;;;;9.34;69.50;99417.88;5062168;28;19921;-75
2023/05/17 04:03:23;;;;;;;;;;;;;;;9.35;69.44;99411.53;5058299;28;19921;-75
2023/05/17 04:05:49;;;;;;;;;;;;;;;9.25;70.10;99419.22;5060415;28;19916;-75
2023/05/17 04:08:14;;;;;;;;;;;;;;;9.16;70.52;99423.22;5059284;28;20005;-75
2023/05/17 04:10:41;;;;;;;;;;;;;;;9.40;69.96;99432.94;5053757;28;19966;-75
2023/05/17 04:13:06;;;;;;;;;;;;;;;9.13;70.75;99424.50;5056874;28;19973;-75
2023/05/17 04:15:32;;;;;;;;;;;;;;;9.37;70.80;99431.53;5060136;28;20372;-75
2023/05/17 04:17:57;;;;;;;;;;;;;;;9.37;70.40;99433.41;5065066;28;19928;-75
2023/05/17 04:20:22;;;;;;;;;;;;;;;9.04;71.95;99433.84;5055099;28;19928;-75
2023/05/17 04:22:47;;;;;;;;;;;;;;;8.84;72.87;99434.09;5054088;28;19925;-75
2023/05/17 04:25:12;;;;;;;;;;;;;;;9.18;70.70;99429.97;5058631;28;20451;-76
2023/05/17 04:27:38;;;;;;;;;;;;;;;8.83;72.71;99435.13;5057513;28;20391;-76
2023/05/17 04:30:03;;;;;;;;;;;;;;;9.12;71.22;99433.53;5051150;28;20011;-75
2023/05/17 04:32:28;;;;;;;;;;;;;;;9.21;71.56;99447.34;5055501;28;19921;-75
2023/05/17 04:34:55;;;;;;;;;;;;;;;9.03;72.02;99448.19;5058352;28;19936;-75
2023/05/17 04:37:20;;;;;;;;;;;;;;;9.10;70.91;99450.78;5059988;28;20276;-76
2023/05/17 04:39:45;;;;;;;;;;;;;;;9.01;71.66;99459.06;5054840;28;19916;-76
2023/05/17 04:42:10;;;;;;;;;;;;;;;8.90;72.45;99451.81;5061940;28;19924;-75
2023/05/17 04:44:36;;;;;;;;;;;;;;;9.26;71.02;99452.81;5050849;28;19921;-75
2023/05/17 04:47:02;;;;;;;;;;;;;;;9.02;71.85;99452.69;5058497;28;19921;-75
2023/05/17 04:49:27;;;;;;;;;;;;;;;9.22;71.55;99456.97;5045561;28;19947;-75
2023/05/17 04:51:53;;;;;;;;;;;;;;;9.22;71.91;99464.97;5049574;28;20557;-75
2023/05/17 04:54:18;;;;;;;;;;;;;;;9.41;70.39;99469.22;5049921;28;20292;-75
2023/05/17 04:56:43;;;;;;;;;;;;;;;9.29;71.77;99474.47;5041948;28;19929;-75
2023/05/17 04:59:08;;;;;;;;;;;;;;;9.17;72.42;99475.47;5054997;28;19924;-75
2023/05/17 05:01:34;;;;;;;;;;;;;;;9.43;70.70;99472.47;5051379;28;19929;-75
2023/05/17 05:03:59;;;;;;;;;;;;;;;9.19;71.71;99481.38;5044799;28;19932;-75
2023/05/17 05:06:24;;;;;;;;;;;;;;;9.27;71.48;99473.06;5057419;28;19923;-75
2023/05/17 05:08:50;;;;;;;;;;;;;;;9.37;71.00;99473.38;5050609;28;19917;-75
2023/05/17 05:11:15;;;;;;;;;;;;;;;9.54;70.24;99477.84;5042993;28;19979;-75
2023/05/17 05:13:41;;;;;;;;;;;;;;;9.29;71.13;99485.13;5046126;28;20006;-75
2023/05/17 05:16:06;;;;;;;;;;;;;;;9.53;70.60;99480.72;5057595;28;19913;-75
2023/05/17 05:18:31;;;;;;;;;;;;;;;9.57;69.52;99489.88;5045755;28;19956;-75
2023/05/17 05:20:58;;;;;;;;;;;;;;;9.42;70.34;99487.63;5061692;28;19924;-75
2023/05/17 05:23:23;;;;;;;;;;;;;;;9.26;71.21;99487.44;5059347;28;19931;-75
2023/05/17 05:25:48;;;;;;;;;;;;;;;9.66;70.33;99488.53;5062782;28;20383;-75
2023/05/17 05:28:13;;;;;;;;;;;;;;;9.65;69.49;99489.59;5052412;28;20448;-76
2023/05/17 05:30:39;;;;;;;;;;;;;;;9.22;72.32;99491.59;5051694;28;20355;-75
2023/05/17 05:33:04;;;;;;;;;;;;;;;9.21;71.67;99501.44;5053425;28;20338;-75
2023/05/17 05:35:29;;;;;;;;;;;;;;;9.17;71.88;99499.44;5053973;28;19925;-75
2023/05/17 05:37:55;;;;;;;;;;;;;;;8.90;72.81;99505.06;5054960;28;19921;-75
2023/05/17 05:40:21;;;;;;;;;;;;;;;9.44;71.96;99506.03;5060293;28;20304;-75
2023/05/17 05:42:46;;;;;;;;;;;;;;;9.84;70.09;99509.81;5045608;28;19920;-75
2023/05/17 05:45:11;;;;;;;;;;;;;;;9.73;70.13;99502.59;5058028;28;19929;-75
2023/05/17 05:47:37;;;;;;;;;;;;;;;9.92;70.03;99504.16;5051936;28;20011;-75
2023/05/17 05:50:02;;;;;;;;;;;;;;;9.89;70.48;99509.13;5056411;28;19930;-75
2023/05/17 05:52:27;;;;;;;;;;;;;;;9.93;69.24;99519.13;5055727;28;20015;-75
2023/05/17 05:54:53;;;;;;;;;;;;;;;10.27;69.05;99514.91;5058789;28;19970;-75
2023/05/17 05:57:18;;;;;;;;;;;;;;;10.24;69.01;99518.06;5051365;28;19920;-75
2023/05/17 05:59:44;;;;;;;;;;;;;;;9.79;70.41;99512.34;5061808;28;19943;-75
2023/05/17 06:02:09;;;;;;;;;;;;;;;10.25;69.04;99525.81;5056094;28;20372;-76
2023/05/17 06:04:34;;;;;;;;;;;;;;;9.86;69.08;99523.72;5057708;28;20939;-77
2023/05/17 06:06:59;;;;;;;;;;;;;;;9.22;70.47;99529.69;5059454;28;19920;-77
2023/05/17 06:09:25;;;;;;;;;;;;;;;8.97;71.81;99529.78;5057708;28;19956;-76
2023/05/17 06:11:51;;;;;;;;;;;;;;;9.77;70.93;99530.41;5058531;28;19928;-76
2023/05/17 06:14:17;;;;;;;;;;;;;;;9.37;70.09;99530.09;5050113;28;19928;-76
2023/05/17 06:16:42;;;;;;;;;;;;;;;9.54;69.29;99530.31;5054092;28;20827;-76
2023/05/17 06:19:07;;;;;;;;;;;;;;;9.43;69.87;99537.22;5058153;28;19939;-76
2023/05/17 06:21:32;;;;;;;;;;;;;;;9.78;68.93;99538.19;5060676;28;20461;-76
2023/05/17 06:23:58;;;;;;;;;;;;;;;9.34;67.91;99537.75;5060023;28;20011;-76
2023/05/17 06:26:23;;;;;;;;;;;;;;;9.23;68.64;99547.31;5046175;28;19932;-76
2023/05/17 06:28:48;;;;;;;;;;;;;;;8.99;67.36;99556.16;5079988;28;19974;-76
2023/05/17 06:31:13;;;;;;;;;;;;;;;9.31;69.15;99562.97;5062008;28;19920;-76
2023/05/17 06:33:39;;;;;;;;;;;;;;;10.07;67.02;99567.75;5058455;28;19928;-76
2023/05/17 06:36:04;;;;;;;;;;;;;;;9.34;67.49;99564.38;5052721;28;20319;-76
2023/05/17 06:38:29;;;;;;;;;;;;;;;9.45;68.20;99576.97;5057527;28;20041;-76
2023/05/17 06:40:56;;;;;;;;;;;;;;;9.12;67.96;99572.00;5058898;28;19927;-76
2023/05/17 06:43:21;;;;;;;;;;;;;;;9.88;69.05;99577.63;5058738;28;20257;-76
2023/05/17 06:45:46;;;;;;;;;;;;;;;10.70;67.17;99581.34;5057319;28;19927;-76
2023/05/17 06:48:12;;;;;;;;;;;;;;;10.85;65.27;99579.03;5058090;28;19924;-76
2023/05/17 06:50:37;;;;;;;;;;;;;;;10.99;65.47;99581.25;5058301;28;19928;-77
2023/05/17 06:53:03;;;;;;;;;;;;;;;11.15;65.27;99585.06;5052631;28;19983;-76
2023/05/17 06:55:28;;;;;;;;;;;;;;;10.70;63.33;99584.84;5055889;28;19931;-76
2023/05/17 06:57:53;;;;;;;;;;;;;;;9.43;65.08;99587.03;5057381;28;20356;-76
2023/05/17 07:00:20;;;;;;;;;;;;;;;9.40;65.91;99576.81;5055326;28;20500;-76
2023/05/17 07:02:45;;;;;;;;;;;;;;;10.11;66.13;99585.75;5055013;28;19935;-77
2023/05/17 07:05:10;;;;;;;;;;;;;;;10.30;67.35;99590.00;5046216;28;19930;-77
2023/05/17 07:07:36;;;;;;;;;;;;;;;9.91;65.50;99590.53;5053369;28;19990;-77
2023/05/17 07:10:01;;;;;;;;;;;;;;;10.34;66.36;99583.16;5053228;28;20351;-77
2023/05/17 07:12:26;;;;;;;;;;;;;;;10.75;64.36;99581.47;5044406;28;20320;-77
2023/05/17 07:14:52;;;;;;;;;;;;;;;11.12;62.46;99590.88;5052181;28;19943;-77
2023/05/17 07:17:17;;;;;;;;;;;;;;;11.43;63.52;99585.13;5056449;28;20299;-77
2023/05/17 07:19:42;;;;;;;;;;;;;;;10.24;62.32;99598.88;5053083;28;19929;-77
2023/05/17 07:22:08;;;;;;;;;;;;;;;10.15;63.96;99604.78;5060440;28;19920;-77
2023/05/17 07:24:34;;;;;;;;;;;;;;;9.89;61.50;99605.94;5065234;28;20903;-77
2023/05/17 07:27:00;;;;;;;;;;;;;;;9.26;63.96;99605.44;5060739;28;20011;-77
2023/05/17 07:29:25;;;;;;;;;;;;;;;9.46;64.33;99599.88;5053503;28;19916;-77
2023/05/17 07:31:50;;;;;;;;;;;;;;;10.33;63.88;99596.72;5059583;28;19970;-77
2023/05/17 07:34:15;;;;;;;;;;;;;;;10.30;62.97;99610.53;5058493;28;19924;-77
2023/05/17 07:36:41;;;;;;;;;;;;;;;10.45;61.04;99600.22;5045375;28;19929;-77
2023/05/17 07:39:07;;;;;;;;;;;;;;;10.82;62.95;99612.34;5056496;28;19938;-77
2023/05/17 07:41:33;;;;;;;;;;;;;;;10.00;59.77;99607.03;5054948;28;19928;-76
2023/05/17 07:43:58;;;;;;;;;;;;;;;11.13;63.91;99617.38;5053810;28;20008;-77
2023/05/17 07:46:23;;;;;;;;;;;;;;;10.65;59.85;99610.59;5051030;28;19936;-77
2023/05/17 07:48:48;;;;;;;;;;;;;;;11.26;63.84;99624.31;5053840;28;19917;-77
2023/05/17 07:51:13;;;;;;;;;;;;;;;12.12;61.56;99623.44;5057580;28;19928;-77
2023/05/17 07:53:39;;;;;;;;;;;;;;;12.09;61.47;99629.28;5050188;28;19920;-77
2023/05/17 07:56:04;;;;;;;;;;;;;;;12.42;61.00;99626.69;5044118;28;19935;-77
2023/05/17 07:58:29;;;;;;;;;;;;;;;12.33;60.89;99626.25;5055308;28;19916;-77
2023/05/17 08:00:55;;;;;;;;;;;;;;;12.57;60.62;99626.94;5058430;28;19929;-77
2023/05/17 08:03:20;;;;;;;;;;;;;;;12.56;60.16;99631.47;5059904;28;20408;-77
2023/05/17 08:05:45;;;;;;;;;;;;;;;12.18;60.94;99630.53;5060240;28;19927;-77
2023/05/17 08:08:10;;;;;;;;;;;;;;;12.00;61.46;99635.00;5060912;28;19916;-77
2023/05/17 08:10:36;;;;;;;;;;;;;;;12.09;60.36;99637.31;5042767;28;19935;-77
2023/05/17 08:13:02;;;;;;;;;;;;;;;12.44;60.97;99635.28;5075913;28;20019;-77
2023/05/17 08:15:28;;;;;;;;;;;;;;;11.03;58.85;99635.03;5046212;28;19926;-77
2023/05/17 08:17:53;;;;;;;;;;;;;;;11.12;59.69;99642.44;5051002;28;19927;-77
2023/05/17 08:20:18;;;;;;;;;;;;;;;11.06;57.56;99639.88;5054499;28;20328;-77
2023/05/17 08:22:44;;;;;;;;;;;;;;;11.92;61.69;99642.59;5051113;28;19924;-77
2023/05/17 08:25:09;;;;;;;;;;;;;;;12.09;59.14;99642.66;5062167;28;19925;-77
2023/05/17 08:27:34;;;;;;;;;;;;;;;11.44;57.19;99642.91;5064087;28;20047;-77
2023/05/17 08:29:59;;;;;;;;;;;;;;;11.63;59.10;99647.06;5065440;28;19927;-77
2023/05/17 08:32:25;;;;;;;;;;;;;;;12.33;58.43;99633.47;5054970;28;19929;-77
2023/05/17 08:34:50;;;;;;;;;;;;;;;11.65;56.72;99638.78;5052487;28;19920;-77
2023/05/17 08:37:16;;;;;;;;;;;;;;;12.51;58.08;99635.94;5052637;28;20431;-77
2023/05/17 08:39:41;;;;;;;;;;;;;;;12.64;58.11;99649.84;5055509;28;19960;-77
2023/05/17 08:42:07;;;;;;;;;;;;;;;12.39;57.58;99645.88;5049778;28;19963;-77
2023/05/17 08:44:32;;;;;;;;;;;;;;;11.85;57.28;99653.44;5054991;28;19921;-77
2023/05/17 08:46:59;;;;;;;;;;;;;;;12.53;58.71;99647.22;5066342;28;19942;-77
2023/05/17 08:49:26;;;;;;;;;;;;;;;12.84;57.73;99654.72;5056394;28;19920;-77
2023/05/17 08:51:56;;;;;;;;;;;;;;;12.41;57.47;99647.28;5055699;28;19917;-77
2023/05/17 08:54:21;;;;;;;;;;;;;;;13.08;58.17;99642.81;5047192;28;19956;-77
2023/05/17 08:56:51;;;;;;;;;;;;;;;12.93;56.84;99645.22;5060991;28;20756;-77
2023/05/17 08:59:17;;;;;;;;;;;;;;;13.17;57.64;99649.38;5063671;28;19920;-77
2023/05/17 09:01:44;;;;;;;;;;;;;;;12.91;57.02;99644.63;5059108;28;19920;-77
2023/05/17 09:04:10;;;;;;;;;;;;;;;12.94;56.99;99646.03;5044470;28;19928;-77
2023/05/17 09:06:36;;;;;;;;;;;;;;;13.10;57.03;99653.28;5054829;28;20384;-77
2023/05/17 09:09:01;;;;;;;;;;;;;;;12.99;55.43;99654.97;5055057;28;19970;-77
2023/05/17 09:11:27;;;;;;;;;;;;;;;12.56;56.60;99655.56;5053387;28;19952;-77
2023/05/17 09:13:56;;;;;;;;;;;;;;;12.95;54.99;99656.53;5066458;28;19924;-77
2023/05/17 09:16:22;;;;;;;;;;;;;;;13.04;56.37;99656.91;5065421;28;19981;-77
2023/05/17 09:18:54;;;;;;;;;;;;;;;12.87;55.65;99656.09;5060401;28;19967;-77
2023/05/17 09:21:19;;;;;;;;;;;;;;;12.50;55.71;99648.50;5059122;28;19970;-77
2023/05/17 09:23:46;;;;;;;;;;;;;;;12.75;56.47;99654.28;5044650;28;19932;-77
2023/05/17 09:26:12;;;;;;;;;;;;;;;11.90;52.66;99650.06;5050822;28;19920;-77
2023/05/17 09:28:38;;;;;;;;;;;;;;;11.21;53.98;99648.25;5061985;28;19917;-77
2023/05/17 09:31:13;;;;;;;;;;;;;;;11.01;55.65;99648.59;5068070;28;20475;-77
2023/05/17 09:33:43;;;;;;;;;;;;;;;12.04;57.82;99643.38;5067757;28;19966;-76
2023/05/17 09:36:34;;;;;;;;;;;;;;;13.27;55.17;99651.41;5070424;28;19927;-77
2023/05/17 09:39:06;;;;;;;;;;;;;;;13.35;54.87;99651.78;5059707;28;19931;-77
2023/05/17 09:41:32;;;;;;;;;;;;;;;13.88;53.78;99647.66;5056549;28;19921;-77
2023/05/17 09:44:02;;;;;;;;;;;;;;;13.83;53.87;99653.78;5064190;28;20444;-77
2023/05/17 09:46:47;;;;;;;;;;;;;;;13.44;53.01;99647.63;5055588;28;20020;-77
2023/05/17 09:49:13;;;;;;;;;;;;;;;13.05;54.79;99648.66;5060316;28;20399;-77
2023/05/17 09:51:40;;;;;;;;;;;;;;;13.03;55.05;99647.25;5059603;28;19921;-77
2023/05/17 09:54:06;;;;;;;;;;;;;;;12.69;54.90;99643.72;5067659;28;19923;-77
2023/05/17 09:56:31;;;;;;;;;;;;;;;13.35;54.33;99643.75;5067189;28;19916;-77
2023/05/17 09:59:00;;;;;;;;;;;;;;;13.85;53.78;99648.16;5057298;28;20007;-77
2023/05/17 10:01:26;;;;;;;;;;;;;;;13.95;53.28;99653.66;5058184;28;19923;-77
2023/05/17 10:03:52;;;;;;;;;;;;;;;13.65;54.30;99650.59;5052765;28;19920;-77
2023/05/17 10:06:19;;;;;;;;;;;;;;;13.96;54.48;99653.41;5059105;28;19962;-77
2023/05/17 10:08:45;;;;;;;;;;;;;;;13.66;54.99;99650.34;5048651;28;20031;-77
2023/05/17 10:11:10;;;;;;;;;;;;;;;14.03;53.49;99647.84;5064556;28;19921;-77
2023/05/17 10:14:00;;;;;;;;;;;;;;;13.00;52.59;99643.19;5067086;28;20007;-77
2023/05/17 10:16:26;;;;;;;;;;;;;;;13.50;55.04;99652.00;5054663;28;19943;-77
2023/05/17 10:18:52;;;;;;;;;;;;;;;13.19;54.77;99655.28;5062172;28;20431;-77
2023/05/17 10:21:18;;;;;;;;;;;;;;;12.79;54.51;99652.78;5060827;28;20019;-77
2023/05/17 10:23:45;;;;;;;;;;;;;;;12.26;50.99;99640.81;5066735;28;19924;-76
2023/05/17 10:26:11;;;;;;;;;;;;;;;11.94;52.03;99644.00;5049972;28;19927;-77
2023/05/17 10:28:38;;;;;;;;;;;;;;;13.30;55.48;99632.16;5065277;28;20007;-77
2023/05/17 10:31:04;;;;;;;;;;;;;;;13.96;50.84;99639.97;5053667;28;19929;-77
2023/05/17 10:33:30;;;;;;;;;;;;;;;13.47;52.15;99639.09;5057372;28;19983;-77
2023/05/17 10:35:56;;;;;;;;;;;;;;;13.07;51.84;99643.03;5056323;28;19928;-77
2023/05/17 10:38:23;;;;;;;;;;;;;;;13.69;52.41;99640.97;5059638;28;19916;-77
2023/05/17 10:40:50;;;;;;;;;;;;;;;13.99;54.19;99639.47;5056645;28;19967;-77
2023/05/17 10:43:16;;;;;;;;;;;;;;;13.03;54.03;99647.25;5057274;28;20402;-77
2023/05/17 10:45:42;;;;;;;;;;;;;;;12.85;50.67;99645.63;5060879;28;19916;-77
2023/05/17 10:48:07;;;;;;;;;;;;;;;14.36;53.99;99645.00;5061039;28;19931;-77
2023/05/17 10:50:36;;;;;;;;;;;;;;;13.54;53.37;99642.38;5060119;28;19954;-77
2023/05/17 10:53:04;;;;;;;;;;;;;;;13.88;52.20;99653.84;5058252;28;19917;-77
2023/05/17 10:55:40;;;;;;;;;;;;;;;13.31;49.53;99642.63;5045559;28;19940;-77
2023/05/17 10:58:19;;;;;;;;;;;;;;;14.59;52.27;99647.38;5055713;28;19928;-77
2023/05/17 11:00:53;;;;;;;;;;;;;;;15.12;52.03;99649.16;5035315;28;19924;-77
2023/05/17 11:03:18;;;;;;;;;;;;;;;14.68;52.55;99655.78;5053472;28;19924;-77
2023/05/17 11:06:04;;;;;;;;;;;;;;;15.33;51.11;99656.28;5067109;28;20287;-77
2023/05/17 11:08:29;;;;;;;;;;;;;;;15.58;50.78;99651.09;5070275;28;19916;-77
2023/05/17 11:11:16;;;;;;;;;;;;;;;15.35;47.60;99639.91;5052859;28;19939;-77
2023/05/17 11:13:45;;;;;;;;;;;;;;;14.09;50.49;99634.22;5064688;28;19924;-77
2023/05/17 11:16:13;;;;;;;;;;;;;;;13.79;49.75;99636.56;5069106;28;20074;-77
2023/05/17 11:18:52;;;;;;;;;;;;;;;13.27;50.01;99643.34;5066664;28;19920;-77
2023/05/17 11:21:18;;;;;;;;;;;;;;;12.91;50.58;99650.00;5064940;28;20023;-77
2023/05/17 11:23:44;;;;;;;;;;;;;;;13.18;54.42;99653.69;5061914;28;20004;-77
2023/05/17 11:26:18;;;;;;;;;;;;;;;12.13;51.33;99649.16;5072491;28;20314;-77
2023/05/17 11:28:44;;;;;;;;;;;;;;;12.27;51.24;99654.00;5064740;28;19916;-77
2023/05/17 11:31:09;;;;;;;;;;;;;;;12.07;52.11;99661.63;5069957;28;19969;-77
2023/05/17 11:33:42;;;;;;;;;;;;;;;14.56;54.18;99661.34;5073175;28;20296;-77
2023/05/17 11:36:14;;;;;;;;;;;;;;;12.60;49.65;99647.88;5060971;28;19917;-77
2023/05/17 11:38:39;;;;;;;;;;;;;;;12.74;49.50;99647.31;5066955;28;19932;-77
2023/05/17 11:41:18;;;;;;;;;;;;;;;13.25;50.12;99650.84;5060463;28;19920;-77
2023/05/17 11:43:47;;;;;;;;;;;;;;;13.80;50.78;99656.97;5053991;28;19933;-77
2023/05/17 11:46:20;;;;;;;;;;;;;;;13.35;51.72;99657.16;5062265;28;19920;-77
2023/05/17 11:48:45;;;;;;;;;;;;;;;13.34;50.62;99660.09;5053408;28;19924;-77
2023/05/17 11:51:13;;;;;;;;;;;;;;;13.92;53.02;99664.88;5059958;28;19924;-77
2023/05/17 11:53:38;;;;;;;;;;;;;;;13.13;48.24;99661.63;5054993;28;20023;-77
2023/05/17 11:56:05;;;;;;;;;;;;;;;14.14;50.78;99661.13;5053067;28;20387;-77
2023/05/17 11:58:30;;;;;;;;;;;;;;;13.73;46.87;99661.69;5054788;28;19921;-77
2023/05/17 12:00:56;;;;;;;;;;;;;;;13.32;48.67;99657.63;5053627;28;19920;-77
2023/05/17 12:03:30;;;;;;;;;;;;;;;13.43;49.50;99666.66;5057488;28;20027;-77
2023/05/17 12:06:03;;;;;;;;;;;;;;;13.99;52.36;99666.31;5068142;28;20470;-77
2023/05/17 12:08:29;;;;;;;;;;;;;;;14.30;50.36;99659.47;5069633;28;19925;-77
2023/05/17 12:10:56;;;;;;;;;;;;;;;13.62;47.87;99661.81;5062121;28;20455;-77
2023/05/17 12:13:21;;;;;;;;;;;;;;;13.19;50.79;99676.75;5055922;28;19962;-77
2023/05/17 12:15:56;;;;;;;;;;;;;;;14.40;53.84;99664.94;5052074;28;20376;-77
2023/05/17 12:18:22;;;;;;;;;;;;;;;14.13;48.21;99664.06;5054612;28;20007;-77
2023/05/17 12:20:56;;;;;;;;;;;;;;;14.19;49.79;99660.38;5062211;28;20287;-77
2023/05/17 12:23:28;;;;;;;;;;;;;;;15.13;52.10;99668.81;5066115;28;20299;-77
2023/05/17 12:26:03;;;;;;;;;;;;;;;14.52;51.40;99670.97;5057201;28;20371;-77
2023/05/17 12:28:28;;;;;;;;;;;;;;;14.54;47.34;99668.84;5054240;28;19924;-77
2023/05/17 12:30:56;;;;;;;;;;;;;;;13.38;48.32;99661.22;5056854;28;19927;-77
2023/05/17 12:33:21;;;;;;;;;;;;;;;13.92;48.53;99665.69;5052241;28;19936;-77
2023/05/17 12:35:47;;;;;;;;;;;;;;;14.20;51.15;99665.47;5049632;28;20977;-77
2023/05/17 12:38:12;;;;;;;;;;;;;;;13.73;49.18;99661.69;5048827;28;19928;-77
2023/05/17 12:40:41;;;;;;;;;;;;;;;13.58;50.04;99668.72;5044404;28;19929;-77
2023/05/17 12:43:08;;;;;;;;;;;;;;;12.66;49.91;99668.34;5047313;28;19928;-77
2023/05/17 12:45:33;;;;;;;;;;;;;;;12.25;50.83;99666.81;5050253;28;20379;-77
2023/05/17 12:47:59;;;;;;;;;;;;;;;12.29;51.17;99669.81;5047239;28;19917;-77
2023/05/17 12:50:31;;;;;;;;;;;;;;;12.55;50.86;99675.41;5044207;28;20326;-77